America — WDE6076 — position and weather

sailwx.info

Track history (hours):
 
Tides and Currents Weather Stations Pressure Air Temp Water Temp Dewpoint Dewpoint Depression Visibility Wind Speed Wind Dir Waves Ship Positions

America

Owner: ET Yacht, LLC, San Diego, CA. More information available from US FCC via Universal Licensing System and Coast Guard Vessel Documentation Center.

Last reported at 2017-Aug-17 00:34 UTC. Time now 2017-Aug-17 01:43 UTC.
Position N 32°43' W 117°11'.

Length 42 m; draft 3.5 m.

Type: Sailing vessel. MMSI: 367375550.

Date/timePositionNaut miles runAvg speedWind from/ knotsBaromVisibWave heightAir tempDewpointWater temp
2017-Aug-17 00:34N 32°43' W 117°11'0 6.7
2017-Aug-17 00:30N 32°43' W 117°12'3 5.9
2017-Aug-17 00:00N 32°41' W 117°14'3 5.7
2017-Aug-16 23:30N 32°38' W 117°14'3 5.6
2017-Aug-16 23:00N 32°36' W 117°16'1 2.7
2017-Aug-16 22:30N 32°34' W 117°16'3 5.0
2017-Aug-16 22:00N 32°37' W 117°15'3 5.8
2017-Aug-16 21:30N 32°39' W 117°14'4 7.8
2017-Aug-16 21:00N 32°43' W 117°13'2 0.1
2017-Aug-16 01:29N 32°43' W 117°10'0 0.0
2017-Aug-16 00:50N 32°43' W 117°10'0 0.0
2017-Aug-16 00:17N 32°43' W 117°10'0 0.0
2017-Aug-14 22:58N 32°43' W 117°10'0 0.0
2017-Aug-14 20:37N 32°43' W 117°10'0 0.0
2017-Aug-14 20:28N 32°43' W 117°10'0 0.0
2017-Aug-14 08:55N 32°43' W 117°10'0 0.0
2017-Aug-14 03:38N 32°43' W 117°10'1 0.3
2017-Aug-14 00:34N 32°43' W 117°12'1 7.7
2017-Aug-14 00:30N 32°43' W 117°12'4 7.4
2017-Aug-14 00:00N 32°40' W 117°14'4 8.0
2017-Aug-13 23:30N 32°38' W 117°18'4 7.7
2017-Aug-13 23:00N 32°35' W 117°21'3 6.8
2017-Aug-13 22:30N 32°31' W 117°20'4 8.3
2017-Aug-13 22:00N 32°35' W 117°18'4 8.1
2017-Aug-13 21:30N 32°38' W 117°15'4 8.3
2017-Aug-13 21:00N 32°42' W 117°14'3 0.2
2017-Aug-13 03:24N 32°43' W 117°10'1 1.4
2017-Aug-13 02:54N 32°43' W 117°11'1 0.7
2017-Aug-13 02:05N 32°42' W 117°11'0 4.2
2017-Aug-13 02:00N 32°43' W 117°11'1 0.5
2017-Aug-13 00:40N 32°43' W 117°12'1 7.9
2017-Aug-13 00:30N 32°43' W 117°13'4 7.6
2017-Aug-13 00:00N 32°39' W 117°14'4 8.0
2017-Aug-12 23:27N 32°35' W 117°17'4 8.2
2017-Aug-12 23:00N 32°32' W 117°18'1 1.7
2017-Aug-12 22:29N 32°31' W 117°18'4 8.9
2017-Aug-12 22:00N 32°35' W 117°16'4 8.7
2017-Aug-12 21:30N 32°39' W 117°14'4 8.1
2017-Aug-12 21:00N 32°43' W 117°13'2 0.1
2017-Aug-11 23:44N 32°43' W 117°10'1 0.9
2017-Aug-11 22:34N 32°42' W 117°10'2 6.4
2017-Aug-11 22:19N 32°41' W 117°09'2 7.4
2017-Aug-11 22:00N 32°43' W 117°11'2 4.9
2017-Aug-11 21:30N 32°42' W 117°14'2 3.3
2017-Aug-11 21:00N 32°43' W 117°13'2 1.0
2017-Aug-11 19:16N 32°43' W 117°10'0 0.0
2017-Aug-11 18:52N 32°43' W 117°10'0 0.0
2017-Aug-11 01:38N 32°43' W 117°10'0 0.0
2017-Aug-11 01:26N 32°43' W 117°10'0 0.0
2017-Aug-10 22:35N 32°43' W 117°10'0 0.0
2017-Aug-10 22:25N 32°43' W 117°10'0 0.0
2017-Aug-10 21:56N 32°43' W 117°10'0 0.0
2017-Aug-10 21:30N 32°43' W 117°10'0 0.0
2017-Aug-10 20:44N 32°43' W 117°10'0 0.0
2017-Aug-10 20:26N 32°43' W 117°10'0 0.0
2017-Aug-10 19:59N 32°43' W 117°10'0 0.0
2017-Aug-10 19:29N 32°43' W 117°10'0 0.0
2017-Aug-10 19:00N 32°43' W 117°10'0 0.0
2017-Aug-10 18:29N 32°43' W 117°10'0 0.0
2017-Aug-10 18:00N 32°43' W 117°10'0 0.0
2017-Aug-10 17:30N 32°43' W 117°10'0 0.0
2017-Aug-10 08:51N 32°43' W 117°10'0 0.0
2017-Aug-10 07:56N 32°43' W 117°10'0 0.0
2017-Aug-10 07:25N 32°43' W 117°10'0 0.0
2017-Aug-10 06:10N 32°43' W 117°10'0 0.0
2017-Aug-10 05:59N 32°43' W 117°10'0 0.0
2017-Aug-10 05:12N 32°43' W 117°10'0 0.0
2017-Aug-10 05:00N 32°43' W 117°10'0 0.0
2017-Aug-10 04:28N 32°43' W 117°10'0 0.0
2017-Aug-10 03:58N 32°43' W 117°10'0 0.0
2017-Aug-10 03:29N 32°43' W 117°10'0 0.8
2017-Aug-10 03:00N 32°43' W 117°11'1 1.9
2017-Aug-10 02:30N 32°43' W 117°12'1 2.7
2017-Aug-10 02:00N 32°43' W 117°13'2 4.3
2017-Aug-10 01:31N 32°43' W 117°11'0 0.1
2017-Aug-10 01:00N 32°43' W 117°10'0 0.0
2017-Aug-09 22:35N 32°43' W 117°10'1 4.3
2017-Aug-09 22:27N 32°43' W 117°11'1 2.5
2017-Aug-09 22:00N 32°42' W 117°10'3 5.6
2017-Aug-09 21:30N 32°43' W 117°13'1 1.7
2017-Aug-09 21:00N 32°42' W 117°14'3 2.6
2017-Aug-09 19:55N 32°43' W 117°10'0 0.0
2017-Aug-09 19:17N 32°43' W 117°10'0 0.0
2017-Aug-09 06:37N 32°43' W 117°10'0 0.0
2017-Aug-09 06:28N 32°43' W 117°10'0 0.0
2017-Aug-09 05:39N 32°43' W 117°10'0 0.0
2017-Aug-09 05:28N 32°43' W 117°10'0 0.0
2017-Aug-09 04:43N 32°43' W 117°10'0 0.0
2017-Aug-09 03:47N 32°43' W 117°10'0 0.0
2017-Aug-09 03:22N 32°43' W 117°10'0 0.0
2017-Aug-09 03:00N 32°43' W 117°10'0 0.0
2017-Aug-09 02:28N 32°43' W 117°10'0 0.0
2017-Aug-09 02:01N 32°43' W 117°10'0 0.0
2017-Aug-09 01:30N 32°43' W 117°10'0 0.0
2017-Aug-09 01:00N 32°43' W 117°10'0 0.0
2017-Aug-09 00:29N 32°43' W 117°10'0 0.0
2017-Aug-09 00:00N 32°43' W 117°10'0 0.0
2017-Aug-08 23:30N 32°43' W 117°10'0 0.0
2017-Aug-08 23:00N 32°43' W 117°10'0 0.0
2017-Aug-08 22:30N 32°43' W 117°10'0 0.0
2017-Aug-08 21:56N 32°43' W 117°10'0 0.0
2017-Aug-08 21:30N 32°43' W 117°10'0 0.0
2017-Aug-08 20:59N 32°43' W 117°10'0 0.0
2017-Aug-08 20:29N 32°43' W 117°10'0 0.0
2017-Aug-08 19:59N 32°43' W 117°10'0 0.0
2017-Aug-08 19:26N 32°43' W 117°10'0 0.0
2017-Aug-08 18:10N 32°43' W 117°10'0 0.0
2017-Aug-08 17:59N 32°43' W 117°10'0 0.0
2017-Aug-08 17:30N 32°43' W 117°10'0 0.0
2017-Aug-08 16:59N 32°43' W 117°10'0 0.0
2017-Aug-08 15:31N 32°43' W 117°10'0 0.1
2017-Aug-08 15:27N 32°43' W 117°10'0 0.0
2017-Aug-08 11:48N 32°43' W 117°10'0 0.0
2017-Aug-08 10:18N 32°43' W 117°10'0 0.0
2017-Aug-08 09:59N 32°43' W 117°10'0 0.0
2017-Aug-08 02:52N 32°43' W 117°10'0 0.0
2017-Aug-08 02:09N 32°43' W 117°10'0 0.0
2017-Aug-08 02:01N 32°43' W 117°10'0 0.0
2017-Aug-08 01:30N 32°43' W 117°10'0 0.0
2017-Aug-08 01:00N 32°43' W 117°10'0 0.0
2017-Aug-08 00:30N 32°43' W 117°10'0 0.0
2017-Aug-07 23:47N 32°43' W 117°10'0 0.0
2017-Aug-07 23:23N 32°43' W 117°10'0 0.0
2017-Aug-07 22:58N 32°43' W 117°10'0 0.0
2017-Aug-07 22:31N 32°43' W 117°10'0 0.0
2017-Aug-07 22:00N 32°43' W 117°10'0 0.0
2017-Aug-07 21:31N 32°43' W 117°10'0 0.0
2017-Aug-07 21:00N 32°43' W 117°10'0 0.0
2017-Aug-07 20:29N 32°43' W 117°10'0 0.0
2017-Aug-07 20:00N 32°43' W 117°10'0 0.0
2017-Aug-07 18:55N 32°43' W 117°10'0 0.0
2017-Aug-07 07:32N 32°43' W 117°10'0 0.0
2017-Aug-07 06:26N 32°43' W 117°10'0 0.0
2017-Aug-07 04:50N 32°43' W 117°10'0 0.0
2017-Aug-07 04:27N 32°43' W 117°10'0 0.0
2017-Aug-07 01:40N 32°43' W 117°10'0 0.0
2017-Aug-07 01:25N 32°43' W 117°10'0 0.0
2017-Aug-07 00:56N 32°43' W 117°10'  
Track history (hours):
 
Tides and Currents Weather Stations Pressure Air Temp Water Temp Dewpoint Dewpoint Depression Visibility Wind Speed Wind Dir Waves Ship Positions

America

Owner: ET Yacht, LLC, San Diego, CA. More information available from US FCC via Universal Licensing System and Coast Guard Vessel Documentation Center.

Last reported at 2017-Aug-17 00:34 UTC. Time now 2017-Aug-17 01:43 UTC.
Position N 32°43' W 117°11'.

Length 42 m; draft 3.5 m.

Type: Sailing vessel. MMSI: 367375550.

Date/timePositionNaut miles runAvg speedWind from/ knotsBaromVisibWave heightAir tempDewpointWater temp
2017-Aug-17 00:34N 32°43' W 117°11'0 6.7
2017-Aug-17 00:30N 32°43' W 117°12'3 5.9
2017-Aug-17 00:00N 32°41' W 117°14'3 5.7
2017-Aug-16 23:30N 32°38' W 117°14'3 5.6
2017-Aug-16 23:00N 32°36' W 117°16'1 2.7
2017-Aug-16 22:30N 32°34' W 117°16'3 5.0
2017-Aug-16 22:00N 32°37' W 117°15'3 5.8
2017-Aug-16 21:30N 32°39' W 117°14'4 7.8
2017-Aug-16 21:00N 32°43' W 117°13'2 0.1
2017-Aug-16 01:29N 32°43' W 117°10'0 0.0
2017-Aug-16 00:50N 32°43' W 117°10'0 0.0
2017-Aug-16 00:17N 32°43' W 117°10'0 0.0
2017-Aug-14 22:58N 32°43' W 117°10'0 0.0
2017-Aug-14 20:37N 32°43' W 117°10'0 0.0
2017-Aug-14 20:28N 32°43' W 117°10'0 0.0
2017-Aug-14 08:55N 32°43' W 117°10'0 0.0
2017-Aug-14 03:38N 32°43' W 117°10'1 0.3
2017-Aug-14 00:34N 32°43' W 117°12'1 7.7
2017-Aug-14 00:30N 32°43' W 117°12'4 7.4
2017-Aug-14 00:00N 32°40' W 117°14'4 8.0
2017-Aug-13 23:30N 32°38' W 117°18'4 7.7
2017-Aug-13 23:00N 32°35' W 117°21'3 6.8
2017-Aug-13 22:30N 32°31' W 117°20'4 8.3
2017-Aug-13 22:00N 32°35' W 117°18'4 8.1
2017-Aug-13 21:30N 32°38' W 117°15'4 8.3
2017-Aug-13 21:00N 32°42' W 117°14'3 0.2
2017-Aug-13 03:24N 32°43' W 117°10'1 1.4
2017-Aug-13 02:54N 32°43' W 117°11'1 0.7
2017-Aug-13 02:05N 32°42' W 117°11'0 4.2
2017-Aug-13 02:00N 32°43' W 117°11'1 0.5
2017-Aug-13 00:40N 32°43' W 117°12'1 7.9
2017-Aug-13 00:30N 32°43' W 117°13'4 7.6
2017-Aug-13 00:00N 32°39' W 117°14'4 8.0
2017-Aug-12 23:27N 32°35' W 117°17'4 8.2
2017-Aug-12 23:00N 32°32' W 117°18'1 1.7
2017-Aug-12 22:29N 32°31' W 117°18'4 8.9
2017-Aug-12 22:00N 32°35' W 117°16'4 8.7
2017-Aug-12 21:30N 32°39' W 117°14'4 8.1
2017-Aug-12 21:00N 32°43' W 117°13'2 0.1
2017-Aug-11 23:44N 32°43' W 117°10'1 0.9
2017-Aug-11 22:34N 32°42' W 117°10'2 6.4
2017-Aug-11 22:19N 32°41' W 117°09'2 7.4
2017-Aug-11 22:00N 32°43' W 117°11'2 4.9
2017-Aug-11 21:30N 32°42' W 117°14'2 3.3
2017-Aug-11 21:00N 32°43' W 117°13'2 1.0
2017-Aug-11 19:16N 32°43' W 117°10'0 0.0
2017-Aug-11 18:52N 32°43' W 117°10'0 0.0
2017-Aug-11 01:38N 32°43' W 117°10'0 0.0
2017-Aug-11 01:26N 32°43' W 117°10'0 0.0
2017-Aug-10 22:35N 32°43' W 117°10'0 0.0
2017-Aug-10 22:25N 32°43' W 117°10'0 0.0
2017-Aug-10 21:56N 32°43' W 117°10'0 0.0
2017-Aug-10 21:30N 32°43' W 117°10'0 0.0
2017-Aug-10 20:44N 32°43' W 117°10'0 0.0
2017-Aug-10 20:26N 32°43' W 117°10'0 0.0
2017-Aug-10 19:59N 32°43' W 117°10'0 0.0
2017-Aug-10 19:29N 32°43' W 117°10'0 0.0
2017-Aug-10 19:00N 32°43' W 117°10'0 0.0
2017-Aug-10 18:29N 32°43' W 117°10'0 0.0
2017-Aug-10 18:00N 32°43' W 117°10'0 0.0
2017-Aug-10 17:30N 32°43' W 117°10'0 0.0
2017-Aug-10 08:51N 32°43' W 117°10'0 0.0
2017-Aug-10 07:56N 32°43' W 117°10'0 0.0
2017-Aug-10 07:25N 32°43' W 117°10'0 0.0
2017-Aug-10 06:10N 32°43' W 117°10'0 0.0
2017-Aug-10 05:59N 32°43' W 117°10'0 0.0
2017-Aug-10 05:12N 32°43' W 117°10'0 0.0
2017-Aug-10 05:00N 32°43' W 117°10'0 0.0
2017-Aug-10 04:28N 32°43' W 117°10'0 0.0
2017-Aug-10 03:58N 32°43' W 117°10'0 0.0
2017-Aug-10 03:29N 32°43' W 117°10'0 0.8
2017-Aug-10 03:00N 32°43' W 117°11'1 1.9
2017-Aug-10 02:30N 32°43' W 117°12'1 2.7
2017-Aug-10 02:00N 32°43' W 117°13'2 4.3
2017-Aug-10 01:31N 32°43' W 117°11'0 0.1
2017-Aug-10 01:00N 32°43' W 117°10'0 0.0
2017-Aug-09 22:35N 32°43' W 117°10'1 4.3
2017-Aug-09 22:27N 32°43' W 117°11'1 2.5
2017-Aug-09 22:00N 32°42' W 117°10'3 5.6
2017-Aug-09 21:30N 32°43' W 117°13'1 1.7
2017-Aug-09 21:00N 32°42' W 117°14'3 2.6
2017-Aug-09 19:55N 32°43' W 117°10'0 0.0
2017-Aug-09 19:17N 32°43' W 117°10'0 0.0
2017-Aug-09 06:37N 32°43' W 117°10'0 0.0
2017-Aug-09 06:28N 32°43' W 117°10'0 0.0
2017-Aug-09 05:39N 32°43' W 117°10'0 0.0
2017-Aug-09 05:28N 32°43' W 117°10'0 0.0
2017-Aug-09 04:43N 32°43' W 117°10'0 0.0
2017-Aug-09 03:47N 32°43' W 117°10'0 0.0
2017-Aug-09 03:22N 32°43' W 117°10'0 0.0
2017-Aug-09 03:00N 32°43' W 117°10'0 0.0
2017-Aug-09 02:28N 32°43' W 117°10'0 0.0
2017-Aug-09 02:01N 32°43' W 117°10'0 0.0
2017-Aug-09 01:30N 32°43' W 117°10'0 0.0
2017-Aug-09 01:00N 32°43' W 117°10'0 0.0
2017-Aug-09 00:29N 32°43' W 117°10'0 0.0
2017-Aug-09 00:00N 32°43' W 117°10'0 0.0
2017-Aug-08 23:30N 32°43' W 117°10'0 0.0
2017-Aug-08 23:00N 32°43' W 117°10'0 0.0
2017-Aug-08 22:30N 32°43' W 117°10'0 0.0
2017-Aug-08 21:56N 32°43' W 117°10'0 0.0
2017-Aug-08 21:30N 32°43' W 117°10'0 0.0
2017-Aug-08 20:59N 32°43' W 117°10'0 0.0
2017-Aug-08 20:29N 32°43' W 117°10'0 0.0
2017-Aug-08 19:59N 32°43' W 117°10'0 0.0
2017-Aug-08 19:26N 32°43' W 117°10'0 0.0
2017-Aug-08 18:10N 32°43' W 117°10'0 0.0
2017-Aug-08 17:59N 32°43' W 117°10'0 0.0
2017-Aug-08 17:30N 32°43' W 117°10'0 0.0
2017-Aug-08 16:59N 32°43' W 117°10'0 0.0
2017-Aug-08 15:31N 32°43' W 117°10'0 0.1
2017-Aug-08 15:27N 32°43' W 117°10'0 0.0
2017-Aug-08 11:48N 32°43' W 117°10'0 0.0
2017-Aug-08 10:18N 32°43' W 117°10'0 0.0
2017-Aug-08 09:59N 32°43' W 117°10'0 0.0
2017-Aug-08 02:52N 32°43' W 117°10'0 0.0
2017-Aug-08 02:09N 32°43' W 117°10'0 0.0
2017-Aug-08 02:01N 32°43' W 117°10'0 0.0
2017-Aug-08 01:30N 32°43' W 117°10'0 0.0
2017-Aug-08 01:00N 32°43' W 117°10'0 0.0
2017-Aug-08 00:30N 32°43' W 117°10'0 0.0
2017-Aug-07 23:47N 32°43' W 117°10'0 0.0
2017-Aug-07 23:23N 32°43' W 117°10'0 0.0
2017-Aug-07 22:58N 32°43' W 117°10'0 0.0
2017-Aug-07 22:31N 32°43' W 117°10'0 0.0
2017-Aug-07 22:00N 32°43' W 117°10'0 0.0
2017-Aug-07 21:31N 32°43' W 117°10'0 0.0
2017-Aug-07 21:00N 32°43' W 117°10'0 0.0
2017-Aug-07 20:29N 32°43' W 117°10'0 0.0
2017-Aug-07 20:00N 32°43' W 117°10'0 0.0
2017-Aug-07 18:55N 32°43' W 117°10'0 0.0
2017-Aug-07 07:32N 32°43' W 117°10'0 0.0
2017-Aug-07 06:26N 32°43' W 117°10'0 0.0
2017-Aug-07 04:50N 32°43' W 117°10'0 0.0
2017-Aug-07 04:27N 32°43' W 117°10'0 0.0
2017-Aug-07 01:40N 32°43' W 117°10'0 0.0
2017-Aug-07 01:25N 32°43' W 117°10'0 0.0
2017-Aug-07 00:56N 32°43' W 117°10'  

Dump ship's entire track history